Impacts TAF Board INFO
FOR SITUATIONAL AWARENESS. NOT TO BE USED FOR FLIGHT PLANNING PURPOSES.
IDs:

KMEI - Meridian/Key Fld, MS, US

Issued at 0520 UTC 16 Aug 2018
Updated at 1027 UTC 16 Aug 2018
Potential Impact None Slight Moderate High
Time0958Z 16/11Z 16/12Z 16/13Z 16/14Z 16/15Z 16/16Z 16/17Z 16/18Z 16/19Z 16/20Z 16/21Z 16/22Z 16/23Z>>
Type OBS PRVL PRVL PRVL PRVL PRVL PRVL PRVL PRVL PRVL PRVL PRVL PRVL PRVL
VIS 8 >6 >6 >6 >6 >6 >6 >6 >6 >6 >6 >6 >6 >6
CIG -- -- 30 30 30 30 30 60 60 60 60 60 60 60
Cover CLR FEW BKN BKN BKN BKN BKN BKN BKN BKN BKN BKN BKN BKN
FltCat VFR VFR MVFR MVFR MVFR MVFR MVFR VFR VFR VFR VFR VFR VFR VFR
WX -- -- -- -- -- -- -- VCTS VCTS VCTS VCTS VCTS VCTS VCTS
WDir 190 180 190 190 190 190 190 190 190 190 190 190 190 190
WSpd 3 4 4 4 4 4 4 7 7 7 7 7 7 7
WGst -- -- -- -- -- -- -- -- -- -- -- -- -- --

Raw TAF
KMEI 160520Z 1606/1706 18004KT P6SM FEW250
  FM161200 19004KT P6SM SCT015 BKN030 BKN250
  FM161700 19007KT P6SM VCTS SCT040 BKN060CB BKN250
  FM170100 18004KT P6SM SCT050 SCT200


Raw METAR
KMEI 160958Z AUTO 19003KT 8SM CLR 25/23 A3006 RMK AO2 SLP175 T02500233
KMEI 160858Z AUTO 19003KT 9SM CLR 25/23 A3005 RMK AO2 SLP171 T02500233 55002
KMEI 160758Z AUTO 19004KT 9SM CLR 25/23 A3005 RMK AO2 SLP170 T02500233

METAR Board
Radar Display
Forecast Discussion

FOR SITUATIONAL AWARENESS. NOT TO BE USED FOR FLIGHT PLANNING PURPOSES.